Flight Track Log - Related Links

Times and Time Zones

All times are in EDT time to prevent confusion due to time zone crossing. See the RPA3496 flight status page for this flight to view local times or setup timezone preferences in your user account.

Time Position Orientation Groundspeed Altitude Reporting Facility
EDT Latitude Longitude Course Direction KTS MPH feet Rate Location/Type
Wed 02:45:08 PM 39.8833 -75.2333 44° Northeast 138 159 1,000  Level Philadelphia TRACON
Wed 02:45:38 PM 39.8667 -75.2000 123° Southeast 148 170 2,300 2,200 Climbing Philadelphia TRACON
Wed 02:46:38 PM 39.8667 -75.1333 90° East 250 288 4,300 2,429 Climbing Philadelphia TRACON
Wed 02:47:44 PM 39.9000 -75.0167 70° East 290 334 7,400 1,337 Climbing Philadelphia TRACON
Wed 02:49:24 PM 39.9500 -74.8500 69° East 300 345 8,000 217 Climbing New York TRACON
Wed 02:50:00 PM 39.8938 -74.9119 44° Northeast  Level FlightAware Approximate
Wed 02:50:30 PM 40.0167 -74.7667 44° Northeast 297 342 8,000  Level New York TRACON
Wed 02:51:30 PM 40.0667 -74.7000 46° Northeast 298 343 8,000  Level New York TRACON
Wed 02:52:30 PM 40.1167 -74.6167 52° Northeast 297 342 8,000  Level New York TRACON
Wed 02:53:30 PM 40.1833 -74.5333 44° Northeast 299 344 8,000  Level New York TRACON
Wed 02:54:30 PM 40.2333 -74.4500 52° Northeast 298 343 8,000  Level New York TRACON
Wed 02:55:30 PM 40.3000 -74.3833 37° Northeast 298 343 8,000  Level New York TRACON
Wed 02:56:30 PM 40.3500 -74.3000 52° Northeast 298 343 8,000 -300 Level New York TRACON
Wed 02:57:30 PM 40.4167 -74.2333 37° Northeast 296 341 7,400 -500 Descending New York TRACON
Wed 02:58:30 PM 40.4667 -74.1500 52° Northeast 287 330 7,000 -600 Descending New York TRACON
Wed 02:59:30 PM 40.5333 -74.0833 37° Northeast 288 331 6,200 -900 Descending New York TRACON
Wed 03:00:30 PM 40.6000 -74.0667 11° North 285 328 5,200 -1,000 Descending New York TRACON
Wed 03:01:30 PM 40.6833 -74.0667 360° North 282 325 4,200 -600 Descending New York TRACON
Wed 03:02:30 PM 40.7500 -74.0333 21° North 280 322 4,000 -100 Descending New York TRACON
Wed 03:03:30 PM 40.8167 -73.9833 30° Northeast 277 319 4,000 -350 Level New York TRACON
Wed 03:04:30 PM 40.8833 -73.9167 37° Northeast 277 319 3,300 -500 Descending New York TRACON
Wed 03:05:30 PM 40.9333 -73.8667 37° Northeast 242 278 3,000 -650 Descending New York TRACON
Wed 03:06:30 PM 40.9167 -73.8000 108° East 180 207 2,000 -500 Descending New York TRACON
Wed 03:07:30 PM 40.8833 -73.8000 180° South 176 203 2,000 -350 Level New York TRACON
Wed 03:08:30 PM 40.8333 -73.8333 207° Southwest 145 167 1,300 -700 Descending New York TRACON
Wed 03:09:30 PM 40.8167 -73.8500 217° Southwest 128 147 600 -700 Descending New York TRACON
Wed 03:11:00 PM 40.7772 -73.8726 199° South  Level Estimated
Wed 03:18:00 PM 40.7772 -73.8726 199° South  Level Estimated
Wed 03:19:00 PM 40.7772 -73.8726 21° North  Level Estimated

Login

Don't have an account? Register now (free) for customized features, flight alerts, and more!